Time;durP1;ratioP1;P1;durP2;ratioP2;P2;SDS_P1;SDS_P2;PMS_P1;PMS_P2;Temp;Humidity;BMP_temperature;BMP_pressure;BME280_temperature;BME280_humidity;BME280_pressure;Samples;Min_cycle;Max_cycle;Signal;HPM_P1;HPM_P2
2024/03/06 00:01:19;;;;;;;4.7;3.4;;;;;;;;;;;;;
2024/03/06 00:03:47;;;;;;;5.1;3.6;;;;;;;;;;;;;
2024/03/06 00:06:09;;;;;;;5.4;3.7;;;;;;;;;;;;;
2024/03/06 00:08:34;;;;;;;4.3;3.1;;;;;;;;;;;;;
2024/03/06 00:10:59;;;;;;;6;3.5;;;;;;;;;;;;;
2024/03/06 00:13:24;;;;;;;6.1;4.3;;;;;;;;;;;;;
2024/03/06 00:15:49;;;;;;;6.1;3.8;;;;;;;;;;;;;
2024/03/06 00:18:14;;;;;;;7.7;4.5;;;;;;;;;;;;;
2024/03/06 00:20:42;;;;;;;6.8;4.4;;;;;;;;;;;;;
2024/03/06 00:23:05;;;;;;;5.2;3.5;;;;;;;;;;;;;
2024/03/06 00:25:30;;;;;;;4.3;3.3;;;;;;;;;;;;;
2024/03/06 00:27:55;;;;;;;4.2;3;;;;;;;;;;;;;
2024/03/06 00:30:20;;;;;;;3.3;2.6;;;;;;;;;;;;;
2024/03/06 00:32:45;;;;;;;2.9;2.6;;;;;;;;;;;;;
2024/03/06 00:35:11;;;;;;;3.3;2.9;;;;;;;;;;;;;
2024/03/06 00:37:35;;;;;;;3.3;3;;;;;;;;;;;;;
2024/03/06 00:40:00;;;;;;;3.2;2.8;;;;;;;;;;;;;
2024/03/06 00:42:26;;;;;;;3.5;2.8;;;;;;;;;;;;;
2024/03/06 00:44:50;;;;;;;3.5;3.2;;;;;;;;;;;;;
2024/03/06 00:47:16;;;;;;;3.6;2.9;;;;;;;;;;;;;
2024/03/06 00:49:42;;;;;;;3.4;2.9;;;;;;;;;;;;;
2024/03/06 00:52:06;;;;;;;5;3.3;;;;;;;;;;;;;
2024/03/06 00:54:31;;;;;;;4;3.4;;;;;;;;;;;;;
2024/03/06 00:56:57;;;;;;;5.2;3.4;;;;;;;;;;;;;
2024/03/06 00:59:21;;;;;;;5;3.4;;;;;;;;;;;;;
2024/03/06 01:01:46;;;;;;;6.5;3.5;;;;;;;;;;;;;
2024/03/06 01:04:11;;;;;;;4.6;3.8;;;;;;;;;;;;;
2024/03/06 01:06:36;;;;;;;5.5;4;;;;;;;;;;;;;
2024/03/06 01:09:01;;;;;;;4.3;3.7;;;;;;;;;;;;;
2024/03/06 01:11:27;;;;;;;4.8;3.8;;;;;;;;;;;;;
2024/03/06 01:13:51;;;;;;;4.4;3.6;;;;;;;;;;;;;
2024/03/06 01:16:17;;;;;;;4.8;3.9;;;;;;;;;;;;;
2024/03/06 01:18:42;;;;;;;7.1;4.1;;;;;;;;;;;;;
2024/03/06 01:21:07;;;;;;;5.1;4.2;;;;;;;;;;;;;
2024/03/06 01:23:32;;;;;;;4.6;3.9;;;;;;;;;;;;;
2024/03/06 01:25:57;;;;;;;5.5;4.2;;;;;;;;;;;;;
2024/03/06 01:28:23;;;;;;;5.2;4.4;;;;;;;;;;;;;
2024/03/06 01:30:47;;;;;;;5.6;4;;;;;;;;;;;;;
2024/03/06 01:33:12;;;;;;;5.5;4.3;;;;;;;;;;;;;
2024/03/06 01:35:38;;;;;;;5.1;4.3;;;;;;;;;;;;;
2024/03/06 01:38:03;;;;;;;6;4.4;;;;;;;;;;;;;
2024/03/06 01:40:29;;;;;;;5.5;4;;;;;;;;;;;;;
2024/03/06 01:42:53;;;;;;;6;4.5;;;;;;;;;;;;;
2024/03/06 01:45:20;;;;;;;6.5;4.7;;;;;;;;;;;;;
2024/03/06 01:47:43;;;;;;;6.1;4.8;;;;;;;;;;;;;
2024/03/06 01:50:09;;;;;;;5.6;4.5;;;;;;;;;;;;;
2024/03/06 01:52:34;;;;;;;6.4;4.9;;;;;;;;;;;;;
2024/03/06 01:54:59;;;;;;;5.7;4.8;;;;;;;;;;;;;
2024/03/06 01:57:25;;;;;;;6.2;4.8;;;;;;;;;;;;;
2024/03/06 01:59:49;;;;;;;5;4.2;;;;;;;;;;;;;
2024/03/06 02:02:14;;;;;;;6.1;4.6;;;;;;;;;;;;;
2024/03/06 02:04:39;;;;;;;6.3;4.4;;;;;;;;;;;;;
2024/03/06 02:07:04;;;;;;;5.4;4;;;;;;;;;;;;;
2024/03/06 02:09:30;;;;;;;5.8;4.6;;;;;;;;;;;;;
2024/03/06 02:11:55;;;;;;;6.3;4.6;;;;;;;;;;;;;
2024/03/06 02:14:20;;;;;;;4.3;3.8;;;;;;;;;;;;;
2024/03/06 02:16:45;;;;;;;5.6;4.7;;;;;;;;;;;;;
2024/03/06 02:19:10;;;;;;;7.4;5.4;;;;;;;;;;;;;
2024/03/06 02:21:35;;;;;;;6.5;5.1;;;;;;;;;;;;;
2024/03/06 02:24:00;;;;;;;6.8;5.2;;;;;;;;;;;;;
2024/03/06 02:26:25;;;;;;;6;4.5;;;;;;;;;;;;;
2024/03/06 02:28:51;;;;;;;6.4;4.5;;;;;;;;;;;;;
2024/03/06 02:31:16;;;;;;;4.9;4.2;;;;;;;;;;;;;
2024/03/06 02:33:41;;;;;;;5.7;4.6;;;;;;;;;;;;;
2024/03/06 02:36:06;;;;;;;5;4.3;;;;;;;;;;;;;
2024/03/06 02:38:31;;;;;;;4.7;3.5;;;;;;;;;;;;;
2024/03/06 02:40:56;;;;;;;6.1;4.3;;;;;;;;;;;;;
2024/03/06 02:43:21;;;;;;;4.7;4;;;;;;;;;;;;;
2024/03/06 02:45:46;;;;;;;5;4.4;;;;;;;;;;;;;
2024/03/06 02:48:11;;;;;;;5.6;4.3;;;;;;;;;;;;;
2024/03/06 02:50:36;;;;;;;4.7;4.1;;;;;;;;;;;;;
2024/03/06 02:53:01;;;;;;;7.4;5;;;;;;;;;;;;;
2024/03/06 02:55:26;;;;;;;5.7;4.8;;;;;;;;;;;;;
2024/03/06 02:57:51;;;;;;;6.9;5.1;;;;;;;;;;;;;
2024/03/06 03:00:16;;;;;;;6.6;5.6;;;;;;;;;;;;;
2024/03/06 03:02:42;;;;;;;6.8;5.4;;;;;;;;;;;;;
2024/03/06 03:05:07;;;;;;;8.1;5.7;;;;;;;;;;;;;
2024/03/06 03:07:32;;;;;;;7.3;5.7;;;;;;;;;;;;;
2024/03/06 03:09:57;;;;;;;8;5.5;;;;;;;;;;;;;
2024/03/06 03:12:22;;;;;;;5.9;5.3;;;;;;;;;;;;;
2024/03/06 03:14:47;;;;;;;6.9;5.8;;;;;;;;;;;;;
2024/03/06 03:17:15;;;;;;;8.1;5.7;;;;;;;;;;;;;
2024/03/06 03:19:39;;;;;;;5.7;5.1;;;;;;;;;;;;;
2024/03/06 03:22:04;;;;;;;7.2;5.7;;;;;;;;;;;;;
2024/03/06 03:24:28;;;;;;;8;5.7;;;;;;;;;;;;;
2024/03/06 03:26:53;;;;;;;8.2;6;;;;;;;;;;;;;
2024/03/06 03:29:18;;;;;;;8;6.2;;;;;;;;;;;;;
2024/03/06 03:31:43;;;;;;;7;5.7;;;;;;;;;;;;;
2024/03/06 03:34:08;;;;;;;6.7;5.6;;;;;;;;;;;;;
2024/03/06 03:36:34;;;;;;;7.3;5.6;;;;;;;;;;;;;
2024/03/06 03:38:58;;;;;;;7.1;5.7;;;;;;;;;;;;;
2024/03/06 03:41:25;;;;;;;7;5.3;;;;;;;;;;;;;
2024/03/06 03:43:49;;;;;;;6.5;5.7;;;;;;;;;;;;;
2024/03/06 03:46:14;;;;;;;6.2;5.2;;;;;;;;;;;;;
2024/03/06 03:48:39;;;;;;;8.1;6.2;;;;;;;;;;;;;
2024/03/06 03:51:06;;;;;;;8.3;6.9;;;;;;;;;;;;;
2024/03/06 03:53:29;;;;;;;7.7;6.3;;;;;;;;;;;;;
2024/03/06 03:55:54;;;;;;;7.8;5.9;;;;;;;;;;;;;
2024/03/06 03:58:19;;;;;;;8.2;5.8;;;;;;;;;;;;;
2024/03/06 04:02:31;;;;;;;7.5;5.6;;;;;;;;;;;;;
2024/03/06 04:04:56;;;;;;;7.1;5.8;;;;;;;;;;;;;
2024/03/06 04:07:21;;;;;;;7.9;5.9;;;;;;;;;;;;;
2024/03/06 04:09:47;;;;;;;8.1;5.9;;;;;;;;;;;;;
2024/03/06 04:12:11;;;;;;;6.5;5.4;;;;;;;;;;;;;
2024/03/06 04:14:36;;;;;;;7.1;5.4;;;;;;;;;;;;;
2024/03/06 04:17:03;;;;;;;7.1;5.8;;;;;;;;;;;;;
2024/03/06 04:19:26;;;;;;;7.6;5.8;;;;;;;;;;;;;
2024/03/06 04:21:52;;;;;;;7.3;5.7;;;;;;;;;;;;;
2024/03/06 04:24:17;;;;;;;7.8;5.5;;;;;;;;;;;;;
2024/03/06 04:26:42;;;;;;;8.8;5.8;;;;;;;;;;;;;
2024/03/06 04:29:07;;;;;;;6.8;5.3;;;;;;;;;;;;;
2024/03/06 04:31:32;;;;;;;8;5.5;;;;;;;;;;;;;
2024/03/06 04:33:58;;;;;;;7.9;6.4;;;;;;;;;;;;;
2024/03/06 04:36:22;;;;;;;8.8;6.1;;;;;;;;;;;;;
2024/03/06 04:38:48;;;;;;;9.4;7;;;;;;;;;;;;;
2024/03/06 04:41:13;;;;;;;8.5;6.4;;;;;;;;;;;;;
2024/03/06 04:43:38;;;;;;;8;6.1;;;;;;;;;;;;;
2024/03/06 04:46:04;;;;;;;7.8;6;;;;;;;;;;;;;
2024/03/06 04:48:28;;;;;;;8.4;5.4;;;;;;;;;;;;;
2024/03/06 04:50:53;;;;;;;8.3;6.3;;;;;;;;;;;;;
2024/03/06 04:53:20;;;;;;;7.8;6.2;;;;;;;;;;;;;
2024/03/06 04:55:43;;;;;;;7.9;6.1;;;;;;;;;;;;;
2024/03/06 04:58:09;;;;;;;6.9;5.6;;;;;;;;;;;;;
2024/03/06 05:00:34;;;;;;;8.1;6.1;;;;;;;;;;;;;
2024/03/06 05:02:59;;;;;;;8.4;5.6;;;;;;;;;;;;;
2024/03/06 05:05:24;;;;;;;6.3;5.4;;;;;;;;;;;;;
2024/03/06 05:07:49;;;;;;;8.4;6.3;;;;;;;;;;;;;
2024/03/06 05:10:15;;;;;;;9.4;6.8;;;;;;;;;;;;;
2024/03/06 05:12:39;;;;;;;9.5;5.7;;;;;;;;;;;;;
2024/03/06 05:15:04;;;;;;;8.6;6.2;;;;;;;;;;;;;
2024/03/06 05:17:29;;;;;;;9.4;6.3;;;;;;;;;;;;;
2024/03/06 05:19:54;;;;;;;9.2;6.5;;;;;;;;;;;;;
2024/03/06 05:22:19;;;;;;;7.5;5.8;;;;;;;;;;;;;
2024/03/06 05:24:44;;;;;;;7.8;5.8;;;;;;;;;;;;;
2024/03/06 05:27:10;;;;;;;9.5;6.1;;;;;;;;;;;;;
2024/03/06 05:29:36;;;;;;;9.6;6.2;;;;;;;;;;;;;
2024/03/06 05:31:59;;;;;;;9.2;6;;;;;;;;;;;;;
2024/03/06 05:34:25;;;;;;;8.3;5.9;;;;;;;;;;;;;
2024/03/06 05:36:50;;;;;;;8.7;6.3;;;;;;;;;;;;;
2024/03/06 05:39:17;;;;;;;8.2;5.9;;;;;;;;;;;;;
2024/03/06 05:41:41;;;;;;;9.1;6.3;;;;;;;;;;;;;
2024/03/06 05:44:05;;;;;;;8.7;6.3;;;;;;;;;;;;;
2024/03/06 05:46:30;;;;;;;8.8;6;;;;;;;;;;;;;
2024/03/06 05:48:55;;;;;;;7.2;5.2;;;;;;;;;;;;;
2024/03/06 05:51:20;;;;;;;7.5;5.8;;;;;;;;;;;;;
2024/03/06 05:53:46;;;;;;;9.4;6;;;;;;;;;;;;;
2024/03/06 05:56:10;;;;;;;5;3.8;;;;;;;;;;;;;
2024/03/06 05:58:36;;;;;;;11.9;7.4;;;;;;;;;;;;;
2024/03/06 06:01:01;;;;;;;9;5.6;;;;;;;;;;;;;
2024/03/06 06:03:26;;;;;;;6.5;3.7;;;;;;;;;;;;;
2024/03/06 06:05:51;;;;;;;4.2;3.3;;;;;;;;;;;;;
2024/03/06 06:08:16;;;;;;;4.8;3.7;;;;;;;;;;;;;
2024/03/06 06:10:41;;;;;;;6.4;4.2;;;;;;;;;;;;;
2024/03/06 06:13:06;;;;;;;5.8;4;;;;;;;;;;;;;
2024/03/06 06:15:31;;;;;;;5.4;4.4;;;;;;;;;;;;;
2024/03/06 06:17:56;;;;;;;3.6;3.3;;;;;;;;;;;;;
2024/03/06 06:20:21;;;;;;;4.7;3.3;;;;;;;;;;;;;
2024/03/06 06:22:47;;;;;;;2.9;2.5;;;;;;;;;;;;;
2024/03/06 06:25:12;;;;;;;10;5.2;;;;;;;;;;;;;
2024/03/06 06:27:38;;;;;;;10.5;6;;;;;;;;;;;;;
2024/03/06 06:30:02;;;;;;;10.5;6.4;;;;;;;;;;;;;
2024/03/06 06:32:27;;;;;;;12.2;6.4;;;;;;;;;;;;;
2024/03/06 06:34:52;;;;;;;11.1;6;;;;;;;;;;;;;
2024/03/06 06:37:19;;;;;;;9.1;5.2;;;;;;;;;;;;;
2024/03/06 06:39:42;;;;;;;8.3;5.7;;;;;;;;;;;;;
2024/03/06 06:42:08;;;;;;;10.7;5.6;;;;;;;;;;;;;
2024/03/06 06:44:33;;;;;;;10.2;5.8;;;;;;;;;;;;;
2024/03/06 06:46:58;;;;;;;9.6;5.6;;;;;;;;;;;;;
2024/03/06 06:49:23;;;;;;;10.2;6.1;;;;;;;;;;;;;
2024/03/06 06:51:49;;;;;;;10.8;5.3;;;;;;;;;;;;;
2024/03/06 06:54:13;;;;;;;11.2;5.9;;;;;;;;;;;;;
2024/03/06 06:56:38;;;;;;;12.2;6.2;;;;;;;;;;;;;
2024/03/06 06:59:03;;;;;;;9.3;6;;;;;;;;;;;;;
2024/03/06 07:01:29;;;;;;;9.6;5.7;;;;;;;;;;;;;
2024/03/06 07:03:53;;;;;;;7.7;5.1;;;;;;;;;;;;;
2024/03/06 07:06:19;;;;;;;9;5.4;;;;;;;;;;;;;
2024/03/06 07:08:44;;;;;;;10.1;5.6;;;;;;;;;;;;;
2024/03/06 07:11:10;;;;;;;6.6;4.9;;;;;;;;;;;;;
2024/03/06 07:13:34;;;;;;;7.5;5.1;;;;;;;;;;;;;
2024/03/06 07:15:59;;;;;;;8.5;6;;;;;;;;;;;;;
2024/03/06 07:18:24;;;;;;;8.8;5.4;;;;;;;;;;;;;
2024/03/06 07:20:49;;;;;;;9.1;6.4;;;;;;;;;;;;;
2024/03/06 07:23:14;;;;;;;5.6;4.3;;;;;;;;;;;;;
2024/03/06 07:25:39;;;;;;;6.8;5.2;;;;;;;;;;;;;
2024/03/06 07:28:05;;;;;;;8.4;5.8;;;;;;;;;;;;;
2024/03/06 07:30:31;;;;;;;9.1;7.3;;;;;;;;;;;;;
2024/03/06 07:32:55;;;;;;;6.8;4.8;;;;;;;;;;;;;
2024/03/06 07:35:20;;;;;;;5.1;3.6;;;;;;;;;;;;;
2024/03/06 07:37:46;;;;;;;5;4;;;;;;;;;;;;;
2024/03/06 07:40:11;;;;;;;6.8;4.4;;;;;;;;;;;;;
2024/03/06 07:42:36;;;;;;;5.7;4.4;;;;;;;;;;;;;
2024/03/06 07:45:01;;;;;;;6.8;5;;;;;;;;;;;;;
2024/03/06 07:47:26;;;;;;;8;4.9;;;;;;;;;;;;;
2024/03/06 07:49:51;;;;;;;8;5.8;;;;;;;;;;;;;
2024/03/06 07:52:16;;;;;;;9.4;6.3;;;;;;;;;;;;;
2024/03/06 07:54:41;;;;;;;3.9;3.5;;;;;;;;;;;;;
2024/03/06 07:57:06;;;;;;;5.6;3.2;;;;;;;;;;;;;
2024/03/06 07:59:32;;;;;;;5.6;4.2;;;;;;;;;;;;;
2024/03/06 08:01:56;;;;;;;4.9;4;;;;;;;;;;;;;
2024/03/06 08:04:21;;;;;;;8.6;6.3;;;;;;;;;;;;;
2024/03/06 08:06:48;;;;;;;10;6.7;;;;;;;;;;;;;
2024/03/06 08:09:12;;;;;;;9;5.7;;;;;;;;;;;;;
2024/03/06 08:11:37;;;;;;;6.1;3.3;;;;;;;;;;;;;
2024/03/06 08:14:02;;;;;;;4.1;3.4;;;;;;;;;;;;;
2024/03/06 08:16:28;;;;;;;4.1;2.9;;;;;;;;;;;;;
2024/03/06 08:18:52;;;;;;;6.4;4.1;;;;;;;;;;;;;
2024/03/06 08:21:17;;;;;;;6.1;4.6;;;;;;;;;;;;;
2024/03/06 08:23:44;;;;;;;5.3;4.3;;;;;;;;;;;;;
2024/03/06 08:26:07;;;;;;;6.7;4.8;;;;;;;;;;;;;
2024/03/06 08:28:33;;;;;;;6.3;4.5;;;;;;;;;;;;;
2024/03/06 08:30:58;;;;;;;4.7;3.9;;;;;;;;;;;;;
2024/03/06 08:33:24;;;;;;;5.3;3.3;;;;;;;;;;;;;
2024/03/06 08:35:48;;;;;;;4.5;4.1;;;;;;;;;;;;;
2024/03/06 08:38:13;;;;;;;4.9;3.7;;;;;;;;;;;;;
2024/03/06 08:40:39;;;;;;;5.1;4.1;;;;;;;;;;;;;
2024/03/06 08:43:03;;;;;;;4.6;3.5;;;;;;;;;;;;;
2024/03/06 08:45:28;;;;;;;5.1;3.4;;;;;;;;;;;;;
2024/03/06 08:47:54;;;;;;;5;3.5;;;;;;;;;;;;;
2024/03/06 08:50:19;;;;;;;5.4;3.3;;;;;;;;;;;;;
2024/03/06 08:52:44;;;;;;;3.5;2.7;;;;;;;;;;;;;
2024/03/06 08:55:09;;;;;;;2.7;2.5;;;;;;;;;;;;;
2024/03/06 08:57:34;;;;;;;2.4;2.2;;;;;;;;;;;;;
2024/03/06 08:59:59;;;;;;;3.3;2.5;;;;;;;;;;;;;
2024/03/06 09:02:25;;;;;;;2.3;2.1;;;;;;;;;;;;;
2024/03/06 09:04:51;;;;;;;2.8;1.8;;;;;;;;;;;;;
2024/03/06 09:07:15;;;;;;;2.1;1.9;;;;;;;;;;;;;
2024/03/06 09:09:39;;;;;;;4;1.9;;;;;;;;;;;;;
2024/03/06 09:12:06;;;;;;;2.3;1.9;;;;;;;;;;;;;
2024/03/06 09:14:30;;;;;;;2.8;2.6;;;;;;;;;;;;;
2024/03/06 09:16:55;;;;;;;3.5;2.8;;;;;;;;;;;;;
2024/03/06 09:19:20;;;;;;;3.6;3;;;;;;;;;;;;;
2024/03/06 09:21:45;;;;;;;3.3;3;;;;;;;;;;;;;
2024/03/06 09:24:10;;;;;;;3.5;2.9;;;;;;;;;;;;;
2024/03/06 09:26:37;;;;;;;4.7;3.2;;;;;;;;;;;;;
2024/03/06 09:29:01;;;;;;;3.7;3.3;;;;;;;;;;;;;
2024/03/06 09:31:27;;;;;;;3.6;3.3;;;;;;;;;;;;;
2024/03/06 09:33:51;;;;;;;4.2;3.1;;;;;;;;;;;;;
2024/03/06 09:36:16;;;;;;;3.2;2.9;;;;;;;;;;;;;
2024/03/06 09:38:41;;;;;;;4.2;3.3;;;;;;;;;;;;;
2024/03/06 09:41:06;;;;;;;4;3.2;;;;;;;;;;;;;
2024/03/06 09:43:31;;;;;;;3.9;3.2;;;;;;;;;;;;;
2024/03/06 09:45:57;;;;;;;3.3;2.8;;;;;;;;;;;;;
2024/03/06 09:48:22;;;;;;;3.4;2.8;;;;;;;;;;;;;
2024/03/06 09:50:47;;;;;;;4;3.3;;;;;;;;;;;;;
2024/03/06 09:53:12;;;;;;;3.7;3.3;;;;;;;;;;;;;
2024/03/06 09:55:37;;;;;;;3.8;3.3;;;;;;;;;;;;;
2024/03/06 09:58:04;;;;;;;4.5;3.7;;;;;;;;;;;;;
2024/03/06 10:00:28;;;;;;;4.6;3.4;;;;;;;;;;;;;
2024/03/06 10:02:53;;;;;;;4.6;3.7;;;;;;;;;;;;;
2024/03/06 10:05:18;;;;;;;5;3.9;;;;;;;;;;;;;
2024/03/06 10:07:43;;;;;;;6.8;4.4;;;;;;;;;;;;;
2024/03/06 10:10:10;;;;;;;5.4;4.5;;;;;;;;;;;;;
2024/03/06 10:12:33;;;;;;;6.3;4.1;;;;;;;;;;;;;
2024/03/06 10:14:58;;;;;;;7.1;4.5;;;;;;;;;;;;;
2024/03/06 10:17:23;;;;;;;5.8;4.3;;;;;;;;;;;;;
2024/03/06 10:19:51;;;;;;;4.2;3.4;;;;;;;;;;;;;
2024/03/06 10:22:13;;;;;;;6.2;4.2;;;;;;;;;;;;;
2024/03/06 10:24:38;;;;;;;4.7;3.9;;;;;;;;;;;;;
2024/03/06 10:27:03;;;;;;;5.3;4.3;;;;;;;;;;;;;
2024/03/06 10:29:29;;;;;;;4.4;2.7;;;;;;;;;;;;;
2024/03/06 10:31:54;;;;;;;3.1;2.7;;;;;;;;;;;;;
2024/03/06 10:34:20;;;;;;;3.6;2.6;;;;;;;;;;;;;
2024/03/06 10:36:44;;;;;;;2.8;2.5;;;;;;;;;;;;;
2024/03/06 10:39:09;;;;;;;4.4;2.7;;;;;;;;;;;;;
2024/03/06 10:41:34;;;;;;;2.9;2.6;;;;;;;;;;;;;
2024/03/06 10:43:59;;;;;;;3;2.5;;;;;;;;;;;;;
2024/03/06 10:46:24;;;;;;;3.6;2.7;;;;;;;;;;;;;
2024/03/06 10:48:51;;;;;;;3.3;2.6;;;;;;;;;;;;;
2024/03/06 10:51:15;;;;;;;2.8;2.5;;;;;;;;;;;;;
2024/03/06 10:53:40;;;;;;;2.9;2.6;;;;;;;;;;;;;
2024/03/06 10:56:06;;;;;;;2.6;2.3;;;;;;;;;;;;;
2024/03/06 10:58:30;;;;;;;3.1;2.8;;;;;;;;;;;;;
2024/03/06 11:00:57;;;;;;;4.7;3.6;;;;;;;;;;;;;
2024/03/06 11:03:23;;;;;;;4.9;4.3;;;;;;;;;;;;;
2024/03/06 11:05:50;;;;;;;6.1;4.8;;;;;;;;;;;;;
2024/03/06 11:08:12;;;;;;;7.5;4.7;;;;;;;;;;;;;
2024/03/06 11:10:37;;;;;;;5.5;4;;;;;;;;;;;;;
2024/03/06 11:13:02;;;;;;;7;4.6;;;;;;;;;;;;;
2024/03/06 11:15:27;;;;;;;10.4;6.2;;;;;;;;;;;;;
2024/03/06 11:17:54;;;;;;;9.6;5.9;;;;;;;;;;;;;
2024/03/06 11:20:18;;;;;;;9.2;6;;;;;;;;;;;;;
2024/03/06 11:22:43;;;;;;;8.3;4.5;;;;;;;;;;;;;
2024/03/06 11:25:08;;;;;;;6.1;3.5;;;;;;;;;;;;;
2024/03/06 11:27:33;;;;;;;4.6;3.7;;;;;;;;;;;;;
2024/03/06 11:29:58;;;;;;;4;2.7;;;;;;;;;;;;;
2024/03/06 11:32:23;;;;;;;2.5;2.1;;;;;;;;;;;;;
2024/03/06 11:34:48;;;;;;;3.1;2.5;;;;;;;;;;;;;
2024/03/06 11:37:13;;;;;;;3;2.5;;;;;;;;;;;;;
2024/03/06 11:39:38;;;;;;;4.5;3.5;;;;;;;;;;;;;
2024/03/06 11:42:04;;;;;;;5.2;3.8;;;;;;;;;;;;;
2024/03/06 11:44:29;;;;;;;4.4;3.7;;;;;;;;;;;;;
2024/03/06 11:46:54;;;;;;;4.9;3.7;;;;;;;;;;;;;
2024/03/06 11:49:20;;;;;;;4;3.2;;;;;;;;;;;;;
2024/03/06 11:51:44;;;;;;;3.8;3.1;;;;;;;;;;;;;
2024/03/06 11:54:10;;;;;;;3.9;3.3;;;;;;;;;;;;;
2024/03/06 11:56:36;;;;;;;3.4;3.1;;;;;;;;;;;;;
2024/03/06 11:58:59;;;;;;;4.7;3.3;;;;;;;;;;;;;
2024/03/06 12:01:24;;;;;;;3.5;2.8;;;;;;;;;;;;;
2024/03/06 12:03:50;;;;;;;2.3;2.1;;;;;;;;;;;;;
2024/03/06 12:06:16;;;;;;;3.9;3.2;;;;;;;;;;;;;
2024/03/06 12:08:40;;;;;;;6.1;4.2;;;;;;;;;;;;;
2024/03/06 12:11:05;;;;;;;5.6;4.1;;;;;;;;;;;;;
2024/03/06 12:13:30;;;;;;;2.7;2.5;;;;;;;;;;;;;
2024/03/06 12:15:55;;;;;;;6.1;4.8;;;;;;;;;;;;;
2024/03/06 12:18:20;;;;;;;4.4;4;;;;;;;;;;;;;
2024/03/06 12:20:48;;;;;;;2.8;2.5;;;;;;;;;;;;;
2024/03/06 12:23:11;;;;;;;2.7;2.3;;;;;;;;;;;;;
2024/03/06 12:25:36;;;;;;;3.6;2.8;;;;;;;;;;;;;
2024/03/06 12:28:01;;;;;;;2.8;2.6;;;;;;;;;;;;;
2024/03/06 12:30:27;;;;;;;2.6;2.4;;;;;;;;;;;;;
2024/03/06 12:32:51;;;;;;;3.8;2.3;;;;;;;;;;;;;
2024/03/06 12:35:16;;;;;;;2.2;1.9;;;;;;;;;;;;;
2024/03/06 12:37:41;;;;;;;2.7;1.9;;;;;;;;;;;;;
2024/03/06 12:40:51;;;;;;;2.2;2;;;;;;;;;;;;;
2024/03/06 12:42:32;;;;;;;2.4;1.4;;;;;;;;;;;;;
2024/03/06 12:44:57;;;;;;;1.8;1.7;;;;;;;;;;;;;
2024/03/06 12:47:22;;;;;;;2.3;1.7;;;;;;;;;;;;;
2024/03/06 12:49:47;;;;;;;1.9;1.8;;;;;;;;;;;;;
2024/03/06 12:52:12;;;;;;;2.2;1.8;;;;;;;;;;;;;
2024/03/06 12:54:37;;;;;;;1.5;1.3;;;;;;;;;;;;;
2024/03/06 12:57:02;;;;;;;2.1;1.8;;;;;;;;;;;;;
2024/03/06 12:59:27;;;;;;;2.3;1.7;;;;;;;;;;;;;
2024/03/06 13:01:54;;;;;;;1.5;1.2;;;;;;;;;;;;;
2024/03/06 13:04:18;;;;;;;1.9;1.2;;;;;;;;;;;;;
2024/03/06 13:06:42;;;;;;;0.9;0.9;;;;;;;;;;;;;
2024/03/06 13:09:08;;;;;;;1.3;1.2;;;;;;;;;;;;;
2024/03/06 13:11:33;;;;;;;1.4;1.2;;;;;;;;;;;;;
2024/03/06 13:13:58;;;;;;;1.1;1.1;;;;;;;;;;;;;
2024/03/06 13:16:23;;;;;;;1;1;;;;;;;;;;;;;
2024/03/06 13:18:49;;;;;;;0.9;0.9;;;;;;;;;;;;;
2024/03/06 13:21:13;;;;;;;1.5;1.2;;;;;;;;;;;;;
2024/03/06 13:23:39;;;;;;;1.3;1.2;;;;;;;;;;;;;
2024/03/06 13:26:04;;;;;;;1.2;1.1;;;;;;;;;;;;;
2024/03/06 13:28:29;;;;;;;1.1;1;;;;;;;;;;;;;
2024/03/06 13:30:54;;;;;;;1.1;1;;;;;;;;;;;;;
2024/03/06 13:33:19;;;;;;;1.2;1.1;;;;;;;;;;;;;
2024/03/06 13:35:44;;;;;;;1.5;1;;;;;;;;;;;;;
2024/03/06 13:38:09;;;;;;;1.6;1.4;;;;;;;;;;;;;
2024/03/06 13:40:35;;;;;;;1.4;1.3;;;;;;;;;;;;;
2024/03/06 13:43:00;;;;;;;1.3;1.2;;;;;;;;;;;;;
2024/03/06 13:45:26;;;;;;;1.2;1.1;;;;;;;;;;;;;
2024/03/06 13:47:50;;;;;;;1.1;1;;;;;;;;;;;;;
2024/03/06 13:50:15;;;;;;;1.7;1.1;;;;;;;;;;;;;
2024/03/06 13:52:40;;;;;;;1.3;1.1;;;;;;;;;;;;;
2024/03/06 13:57:33;;;;;;;1.2;1.1;;;;;;;;;;;;;
2024/03/06 13:59:57;;;;;;;1.2;1.1;;;;;;;;;;;;;
2024/03/06 14:02:21;;;;;;;1.6;1.2;;;;;;;;;;;;;
2024/03/06 14:04:46;;;;;;;1.2;1.1;;;;;;;;;;;;;
2024/03/06 14:07:12;;;;;;;1.2;1.1;;;;;;;;;;;;;
2024/03/06 14:09:37;;;;;;;1.3;1.2;;;;;;;;;;;;;
2024/03/06 14:12:02;;;;;;;0.9;0.9;;;;;;;;;;;;;
2024/03/06 14:14:27;;;;;;;1;1;;;;;;;;;;;;;
2024/03/06 14:16:52;;;;;;;1;1;;;;;;;;;;;;;
2024/03/06 14:19:17;;;;;;;1.5;1.4;;;;;;;;;;;;;
2024/03/06 14:21:42;;;;;;;1;1;;;;;;;;;;;;;
2024/03/06 14:24:07;;;;;;;1.1;1;;;;;;;;;;;;;
2024/03/06 14:26:32;;;;;;;1.1;1;;;;;;;;;;;;;
2024/03/06 14:28:58;;;;;;;0.8;0.8;;;;;;;;;;;;;
2024/03/06 14:31:22;;;;;;;1.3;1.2;;;;;;;;;;;;;
2024/03/06 14:33:48;;;;;;;1.6;1.3;;;;;;;;;;;;;
2024/03/06 14:36:13;;;;;;;1.6;1.4;;;;;;;;;;;;;
2024/03/06 14:38:38;;;;;;;0.8;0.8;;;;;;;;;;;;;
2024/03/06 14:41:05;;;;;;;1.1;0.9;;;;;;;;;;;;;
2024/03/06 14:43:28;;;;;;;0.7;0.7;;;;;;;;;;;;;
2024/03/06 14:45:53;;;;;;;0.7;0.6;;;;;;;;;;;;;
2024/03/06 14:48:18;;;;;;;0.7;0.7;;;;;;;;;;;;;
2024/03/06 14:50:44;;;;;;;0.6;0.5;;;;;;;;;;;;;
2024/03/06 14:53:09;;;;;;;0.7;0.6;;;;;;;;;;;;;
2024/03/06 14:55:34;;;;;;;0.7;0.6;;;;;;;;;;;;;
2024/03/06 14:57:59;;;;;;;0.6;0.6;;;;;;;;;;;;;
2024/03/06 15:00:24;;;;;;;0.5;0.5;;;;;;;;;;;;;
2024/03/06 15:02:50;;;;;;;1.2;0.7;;;;;;;;;;;;;
2024/03/06 15:05:14;;;;;;;0.9;0.8;;;;;;;;;;;;;
2024/03/06 15:07:39;;;;;;;0.7;0.7;;;;;;;;;;;;;
2024/03/06 15:10:05;;;;;;;0.9;0.6;;;;;;;;;;;;;
2024/03/06 15:12:30;;;;;;;0.9;0.6;;;;;;;;;;;;;
2024/03/06 15:14:56;;;;;;;0.7;0.7;;;;;;;;;;;;;
2024/03/06 15:17:20;;;;;;;0.6;0.6;;;;;;;;;;;;;
2024/03/06 15:19:45;;;;;;;0.6;0.6;;;;;;;;;;;;;
2024/03/06 15:22:10;;;;;;;0.7;0.7;;;;;;;;;;;;;
2024/03/06 15:24:35;;;;;;;0.8;0.8;;;;;;;;;;;;;
2024/03/06 15:27:00;;;;;;;1.3;0.8;;;;;;;;;;;;;
2024/03/06 15:29:26;;;;;;;1.3;1.2;;;;;;;;;;;;;
2024/03/06 15:31:51;;;;;;;4.5;3.2;;;;;;;;;;;;;
2024/03/06 15:34:17;;;;;;;2.4;2;;;;;;;;;;;;;
2024/03/06 15:36:41;;;;;;;1.9;1.1;;;;;;;;;;;;;
2024/03/06 15:39:06;;;;;;;1.7;1.2;;;;;;;;;;;;;
2024/03/06 15:41:31;;;;;;;2.1;1.3;;;;;;;;;;;;;
2024/03/06 15:43:56;;;;;;;0.7;0.7;;;;;;;;;;;;;
2024/03/06 15:46:22;;;;;;;0.6;0.6;;;;;;;;;;;;;
2024/03/06 15:48:47;;;;;;;1.3;0.6;;;;;;;;;;;;;
2024/03/06 15:51:13;;;;;;;0.9;0.6;;;;;;;;;;;;;
2024/03/06 15:53:37;;;;;;;1.7;0.8;;;;;;;;;;;;;
2024/03/06 15:56:02;;;;;;;0.6;0.6;;;;;;;;;;;;;
2024/03/06 15:58:28;;;;;;;0.7;0.6;;;;;;;;;;;;;
2024/03/06 16:00:52;;;;;;;0.8;0.8;;;;;;;;;;;;;
2024/03/06 16:03:17;;;;;;;1.3;1.1;;;;;;;;;;;;;
2024/03/06 16:05:42;;;;;;;0.7;0.7;;;;;;;;;;;;;
2024/03/06 16:08:08;;;;;;;1.1;1;;;;;;;;;;;;;
2024/03/06 16:10:33;;;;;;;1;1;;;;;;;;;;;;;
2024/03/06 16:12:58;;;;;;;1;0.9;;;;;;;;;;;;;
2024/03/06 16:15:23;;;;;;;2.5;1.7;;;;;;;;;;;;;
2024/03/06 16:17:48;;;;;;;2.2;2;;;;;;;;;;;;;
2024/03/06 16:20:13;;;;;;;2.1;1.4;;;;;;;;;;;;;
2024/03/06 16:22:38;;;;;;;1.3;1.1;;;;;;;;;;;;;
2024/03/06 16:25:04;;;;;;;1.6;1.2;;;;;;;;;;;;;
2024/03/06 16:27:29;;;;;;;1.9;1.2;;;;;;;;;;;;;
2024/03/06 16:29:54;;;;;;;1;0.9;;;;;;;;;;;;;
2024/03/06 16:32:19;;;;;;;1.8;0.9;;;;;;;;;;;;;
2024/03/06 16:34:44;;;;;;;1.6;1.1;;;;;;;;;;;;;
2024/03/06 16:37:09;;;;;;;0.9;0.9;;;;;;;;;;;;;
2024/03/06 16:39:34;;;;;;;0.7;0.7;;;;;;;;;;;;;
2024/03/06 16:41:59;;;;;;;1.1;1;;;;;;;;;;;;;
2024/03/06 16:44:24;;;;;;;0.7;0.7;;;;;;;;;;;;;
2024/03/06 16:46:49;;;;;;;0.7;0.7;;;;;;;;;;;;;
2024/03/06 16:49:14;;;;;;;2;0.8;;;;;;;;;;;;;
2024/03/06 16:51:39;;;;;;;1.5;1.4;;;;;;;;;;;;;
2024/03/06 16:54:04;;;;;;;20.4;10.1;;;;;;;;;;;;;
2024/03/06 16:56:30;;;;;;;1.3;1.2;;;;;;;;;;;;;
2024/03/06 16:58:55;;;;;;;1.1;0.8;;;;;;;;;;;;;
2024/03/06 17:01:21;;;;;;;1.3;0.9;;;;;;;;;;;;;
2024/03/06 17:03:46;;;;;;;1.1;1;;;;;;;;;;;;;
2024/03/06 17:06:10;;;;;;;1.3;1.2;;;;;;;;;;;;;
2024/03/06 17:08:35;;;;;;;1.2;1.1;;;;;;;;;;;;;
2024/03/06 17:11:00;;;;;;;1.4;1.3;;;;;;;;;;;;;
2024/03/06 17:13:26;;;;;;;1.4;1.3;;;;;;;;;;;;;
2024/03/06 17:15:51;;;;;;;1.3;1.2;;;;;;;;;;;;;
2024/03/06 17:18:16;;;;;;;1.3;1.2;;;;;;;;;;;;;
2024/03/06 17:20:42;;;;;;;1.3;1.2;;;;;;;;;;;;;
2024/03/06 17:23:07;;;;;;;1.2;1.1;;;;;;;;;;;;;
2024/03/06 17:25:31;;;;;;;1.5;1.4;;;;;;;;;;;;;
2024/03/06 17:27:56;;;;;;;1.3;1.2;;;;;;;;;;;;;
2024/03/06 17:30:22;;;;;;;2.4;2.2;;;;;;;;;;;;;
2024/03/06 17:32:47;;;;;;;1.6;1.5;;;;;;;;;;;;;
2024/03/06 17:35:12;;;;;;;1.7;1.6;;;;;;;;;;;;;
2024/03/06 17:37:38;;;;;;;2;1.8;;;;;;;;;;;;;
2024/03/06 17:40:10;;;;;;;2.4;1.8;;;;;;;;;;;;;
2024/03/06 17:42:28;;;;;;;1.9;1.7;;;;;;;;;;;;;
2024/03/06 17:44:53;;;;;;;2.4;1.9;;;;;;;;;;;;;
2024/03/06 17:47:18;;;;;;;2.2;2;;;;;;;;;;;;;
2024/03/06 17:49:43;;;;;;;2.4;2.1;;;;;;;;;;;;;
2024/03/06 17:52:09;;;;;;;2;1.9;;;;;;;;;;;;;
2024/03/06 17:54:35;;;;;;;4;2.2;;;;;;;;;;;;;
2024/03/06 17:56:59;;;;;;;2.3;2.1;;;;;;;;;;;;;
2024/03/06 17:59:25;;;;;;;3.2;1.9;;;;;;;;;;;;;
2024/03/06 18:01:49;;;;;;;2.4;2.2;;;;;;;;;;;;;
2024/03/06 18:04:14;;;;;;;2.5;2.1;;;;;;;;;;;;;
2024/03/06 18:06:39;;;;;;;2.4;2.2;;;;;;;;;;;;;
2024/03/06 18:09:10;;;;;;;2.7;2.5;;;;;;;;;;;;;
2024/03/06 18:11:29;;;;;;;3.7;3.1;;;;;;;;;;;;;
2024/03/06 18:13:54;;;;;;;4.4;3.7;;;;;;;;;;;;;
2024/03/06 18:16:19;;;;;;;41.6;21.6;;;;;;;;;;;;;
2024/03/06 18:18:45;;;;;;;4.4;3.1;;;;;;;;;;;;;
2024/03/06 18:21:10;;;;;;;6.5;4.9;;;;;;;;;;;;;
2024/03/06 18:23:35;;;;;;;3.6;3.1;;;;;;;;;;;;;
2024/03/06 18:26:00;;;;;;;3.5;3.2;;;;;;;;;;;;;
2024/03/06 18:28:25;;;;;;;3.7;3.2;;;;;;;;;;;;;
2024/03/06 18:30:51;;;;;;;3.3;3;;;;;;;;;;;;;
2024/03/06 18:33:16;;;;;;;3.2;2.9;;;;;;;;;;;;;
2024/03/06 18:35:41;;;;;;;2.3;2.1;;;;;;;;;;;;;
2024/03/06 18:38:06;;;;;;;2.7;2.5;;;;;;;;;;;;;
2024/03/06 18:40:31;;;;;;;3.6;3;;;;;;;;;;;;;
2024/03/06 18:42:56;;;;;;;3.9;3.5;;;;;;;;;;;;;
2024/03/06 18:45:21;;;;;;;4.5;3.7;;;;;;;;;;;;;
2024/03/06 18:47:47;;;;;;;11.6;7.5;;;;;;;;;;;;;
2024/03/06 18:50:12;;;;;;;24;14.2;;;;;;;;;;;;;
2024/03/06 18:52:37;;;;;;;8.1;6.3;;;;;;;;;;;;;
2024/03/06 18:55:02;;;;;;;7.6;6.5;;;;;;;;;;;;;
2024/03/06 18:57:27;;;;;;;9.5;7.3;;;;;;;;;;;;;
2024/03/06 18:59:52;;;;;;;8.5;7.5;;;;;;;;;;;;;
2024/03/06 19:02:17;;;;;;;14.1;9;;;;;;;;;;;;;
2024/03/06 19:04:42;;;;;;;10.3;7.9;;;;;;;;;;;;;
2024/03/06 19:07:07;;;;;;;11.7;7.9;;;;;;;;;;;;;
2024/03/06 19:09:33;;;;;;;10.6;7.6;;;;;;;;;;;;;
2024/03/06 19:11:57;;;;;;;8.4;6.4;;;;;;;;;;;;;
2024/03/06 19:14:22;;;;;;;9.5;6.7;;;;;;;;;;;;;
2024/03/06 19:16:48;;;;;;;9.8;7.3;;;;;;;;;;;;;
2024/03/06 19:19:13;;;;;;;10.1;7.5;;;;;;;;;;;;;
2024/03/06 19:23:02;;;;;;;13;8.6;;;;;;;;;;;;;
2024/03/06 19:25:27;;;;;;;10.6;7.6;;;;;;;;;;;;;
2024/03/06 19:27:52;;;;;;;10.5;7.7;;;;;;;;;;;;;
2024/03/06 19:30:17;;;;;;;10.2;7.7;;;;;;;;;;;;;
2024/03/06 19:32:42;;;;;;;11.7;8.6;;;;;;;;;;;;;
2024/03/06 19:35:08;;;;;;;11.9;9.2;;;;;;;;;;;;;
2024/03/06 19:37:33;;;;;;;15;10.2;;;;;;;;;;;;;
2024/03/06 19:39:58;;;;;;;12.5;9.5;;;;;;;;;;;;;
2024/03/06 19:42:23;;;;;;;12.4;9.1;;;;;;;;;;;;;
2024/03/06 19:44:48;;;;;;;10.4;8.2;;;;;;;;;;;;;
2024/03/06 19:47:13;;;;;;;8.8;7.2;;;;;;;;;;;;;
2024/03/06 19:49:38;;;;;;;10.1;7.7;;;;;;;;;;;;;
2024/03/06 19:52:04;;;;;;;9.1;7.5;;;;;;;;;;;;;
2024/03/06 19:54:31;;;;;;;9;7.4;;;;;;;;;;;;;
2024/03/06 19:56:57;;;;;;;10.1;7.1;;;;;;;;;;;;;
2024/03/06 19:59:19;;;;;;;9.3;6.5;;;;;;;;;;;;;
2024/03/06 20:01:44;;;;;;;6.3;5.7;;;;;;;;;;;;;
2024/03/06 20:04:09;;;;;;;6.6;5.4;;;;;;;;;;;;;
2024/03/06 20:06:34;;;;;;;5;4.1;;;;;;;;;;;;;
2024/03/06 20:08:59;;;;;;;5.3;4.3;;;;;;;;;;;;;
2024/03/06 20:11:25;;;;;;;6.4;5.4;;;;;;;;;;;;;
2024/03/06 20:13:49;;;;;;;7.1;5.5;;;;;;;;;;;;;
2024/03/06 20:16:15;;;;;;;7.8;5.8;;;;;;;;;;;;;
2024/03/06 20:18:40;;;;;;;8.4;7;;;;;;;;;;;;;
2024/03/06 20:21:05;;;;;;;9.5;7.7;;;;;;;;;;;;;
2024/03/06 20:23:30;;;;;;;11.8;8.5;;;;;;;;;;;;;
2024/03/06 20:25:55;;;;;;;12.9;8.6;;;;;;;;;;;;;
2024/03/06 20:28:20;;;;;;;9.3;7.9;;;;;;;;;;;;;
2024/03/06 20:30:46;;;;;;;8.5;6.4;;;;;;;;;;;;;
2024/03/06 20:33:10;;;;;;;7.4;6;;;;;;;;;;;;;
2024/03/06 20:35:36;;;;;;;7.3;6.2;;;;;;;;;;;;;